sensor_id;sensor_type;location;lat;lon;timestamp;temperature;humidity
13093;DHT22;6612;49.568;11.000;2024-01-30T00:01:55;3.80;60.10
13093;DHT22;6612;49.568;11.000;2024-01-30T00:04:22;3.70;60.00
13093;DHT22;6612;49.568;11.000;2024-01-30T00:06:51;3.70;60.10
13093;DHT22;6612;49.568;11.000;2024-01-30T00:09:18;3.70;60.10
13093;DHT22;6612;49.568;11.000;2024-01-30T00:11:45;3.70;60.10
13093;DHT22;6612;49.568;11.000;2024-01-30T00:14:14;3.70;60.20
13093;DHT22;6612;49.568;11.000;2024-01-30T00:16:41;3.60;60.20
13093;DHT22;6612;49.568;11.000;2024-01-30T00:19:08;3.60;60.10
13093;DHT22;6612;49.568;11.000;2024-01-30T00:21:35;3.60;60.20
13093;DHT22;6612;49.568;11.000;2024-01-30T00:24:02;3.60;60.20
13093;DHT22;6612;49.568;11.000;2024-01-30T00:26:30;3.60;60.30
13093;DHT22;6612;49.568;11.000;2024-01-30T00:28:57;3.60;60.40
13093;DHT22;6612;49.568;11.000;2024-01-30T00:31:25;3.50;60.40
13093;DHT22;6612;49.568;11.000;2024-01-30T00:33:52;3.50;60.40
13093;DHT22;6612;49.568;11.000;2024-01-30T00:36:20;3.50;60.40
13093;DHT22;6612;49.568;11.000;2024-01-30T00:38:47;3.50;60.50
13093;DHT22;6612;49.568;11.000;2024-01-30T00:41:14;3.50;60.60
13093;DHT22;6612;49.568;11.000;2024-01-30T00:43:44;3.50;60.60
13093;DHT22;6612;49.568;11.000;2024-01-30T00:46:11;3.50;60.60
13093;DHT22;6612;49.568;11.000;2024-01-30T00:48:39;3.40;60.60
13093;DHT22;6612;49.568;11.000;2024-01-30T00:51:06;3.50;60.10
13093;DHT22;6612;49.568;11.000;2024-01-30T00:53:33;3.30;60.50
13093;DHT22;6612;49.568;11.000;2024-01-30T00:56:00;3.40;60.60
13093;DHT22;6612;49.568;11.000;2024-01-30T00:58:27;3.40;60.60
13093;DHT22;6612;49.568;11.000;2024-01-30T01:00:54;3.40;60.70
13093;DHT22;6612;49.568;11.000;2024-01-30T01:03:21;3.40;60.70
13093;DHT22;6612;49.568;11.000;2024-01-30T01:05:50;3.40;60.80
13093;DHT22;6612;49.568;11.000;2024-01-30T01:08:17;3.30;60.80
13093;DHT22;6612;49.568;11.000;2024-01-30T01:10:44;3.30;60.80
13093;DHT22;6612;49.568;11.000;2024-01-30T01:13:11;3.30;60.80
13093;DHT22;6612;49.568;11.000;2024-01-30T01:15:38;3.30;60.80
13093;DHT22;6612;49.568;11.000;2024-01-30T01:18:05;3.30;60.80
13093;DHT22;6612;49.568;11.000;2024-01-30T01:20:32;3.30;60.90
13093;DHT22;6612;49.568;11.000;2024-01-30T01:23:01;3.30;60.90
13093;DHT22;6612;49.568;11.000;2024-01-30T01:25:28;3.30;61.10
13093;DHT22;6612;49.568;11.000;2024-01-30T01:27:55;3.30;61.10
13093;DHT22;6612;49.568;11.000;2024-01-30T01:30:22;3.20;61.10
13093;DHT22;6612;49.568;11.000;2024-01-30T01:32:51;3.20;61.10
13093;DHT22;6612;49.568;11.000;2024-01-30T01:35:22;3.20;61.20
13093;DHT22;6612;49.568;11.000;2024-01-30T01:37:50;3.20;61.10
13093;DHT22;6612;49.568;11.000;2024-01-30T01:40:22;3.20;61.20
13093;DHT22;6612;49.568;11.000;2024-01-30T01:42:50;3.20;61.30
13093;DHT22;6612;49.568;11.000;2024-01-30T01:45:18;3.20;61.20
13093;DHT22;6612;49.568;11.000;2024-01-30T01:47:48;3.20;61.30
13093;DHT22;6612;49.568;11.000;2024-01-30T01:50:17;3.20;61.30
13093;DHT22;6612;49.568;11.000;2024-01-30T01:52:45;3.20;61.30
13093;DHT22;6612;49.568;11.000;2024-01-30T01:55:14;3.20;61.20
13093;DHT22;6612;49.568;11.000;2024-01-30T01:57:45;3.20;61.30
13093;DHT22;6612;49.568;11.000;2024-01-30T02:00:12;3.20;62.10
13093;DHT22;6612;49.568;11.000;2024-01-30T02:02:41;3.20;61.40
13093;DHT22;6612;49.568;11.000;2024-01-30T02:05:10;3.10;61.30
13093;DHT22;6612;49.568;11.000;2024-01-30T02:07:37;3.10;61.30
13093;DHT22;6612;49.568;11.000;2024-01-30T02:10:07;3.20;61.50
13093;DHT22;6612;49.568;11.000;2024-01-30T02:12:34;3.10;61.40
13093;DHT22;6612;49.568;11.000;2024-01-30T02:15:03;3.10;61.50
13093;DHT22;6612;49.568;11.000;2024-01-30T02:17:30;3.10;61.50
13093;DHT22;6612;49.568;11.000;2024-01-30T02:19:58;3.10;61.50
13093;DHT22;6612;49.568;11.000;2024-01-30T02:22:26;3.10;61.50
13093;DHT22;6612;49.568;11.000;2024-01-30T02:24:53;3.10;61.50
13093;DHT22;6612;49.568;11.000;2024-01-30T02:27:20;3.10;61.60
13093;DHT22;6612;49.568;11.000;2024-01-30T02:29:47;3.10;61.60
13093;DHT22;6612;49.568;11.000;2024-01-30T02:32:14;3.10;61.70
13093;DHT22;6612;49.568;11.000;2024-01-30T02:34:42;3.10;61.80
13093;DHT22;6612;49.568;11.000;2024-01-30T02:37:09;3.10;61.90
13093;DHT22;6612;49.568;11.000;2024-01-30T02:39:38;3.10;61.90
13093;DHT22;6612;49.568;11.000;2024-01-30T02:42:05;3.10;61.90
13093;DHT22;6612;49.568;11.000;2024-01-30T02:44:32;3.10;61.90
13093;DHT22;6612;49.568;11.000;2024-01-30T02:46:59;3.10;61.80
13093;DHT22;6612;49.568;11.000;2024-01-30T02:49:26;3.10;61.80
13093;DHT22;6612;49.568;11.000;2024-01-30T02:51:54;3.10;61.80
13093;DHT22;6612;49.568;11.000;2024-01-30T02:54:22;3.10;61.70
13093;DHT22;6612;49.568;11.000;2024-01-30T02:56:51;3.10;61.80
13093;DHT22;6612;49.568;11.000;2024-01-30T02:59:18;3.10;61.80
13093;DHT22;6612;49.568;11.000;2024-01-30T03:01:45;3.10;61.80
13093;DHT22;6612;49.568;11.000;2024-01-30T03:04:13;3.10;61.80
13093;DHT22;6612;49.568;11.000;2024-01-30T03:06:45;3.10;62.70
13093;DHT22;6612;49.568;11.000;2024-01-30T03:09:13;3.10;61.90
13093;DHT22;6612;49.568;11.000;2024-01-30T03:11:40;3.10;61.90
13093;DHT22;6612;49.568;11.000;2024-01-30T03:14:08;3.00;61.80
13093;DHT22;6612;49.568;11.000;2024-01-30T03:16:37;3.00;61.80
13093;DHT22;6612;49.568;11.000;2024-01-30T03:19:05;3.00;61.80
13093;DHT22;6612;49.568;11.000;2024-01-30T03:21:33;3.00;61.80
13093;DHT22;6612;49.568;11.000;2024-01-30T03:24:00;3.00;61.70
13093;DHT22;6612;49.568;11.000;2024-01-30T03:26:27;3.00;61.70
13093;DHT22;6612;49.568;11.000;2024-01-30T03:28:54;3.00;61.70
13093;DHT22;6612;49.568;11.000;2024-01-30T03:31:22;3.00;61.80
13093;DHT22;6612;49.568;11.000;2024-01-30T03:33:49;3.00;61.80
13093;DHT22;6612;49.568;11.000;2024-01-30T03:36:17;3.00;61.90
13093;DHT22;6612;49.568;11.000;2024-01-30T03:38:44;2.90;61.80
13093;DHT22;6612;49.568;11.000;2024-01-30T03:41:11;2.90;61.10
13093;DHT22;6612;49.568;11.000;2024-01-30T03:43:38;2.90;61.80
13093;DHT22;6612;49.568;11.000;2024-01-30T03:46:05;2.90;61.80
13093;DHT22;6612;49.568;11.000;2024-01-30T03:48:33;2.90;61.80
13093;DHT22;6612;49.568;11.000;2024-01-30T03:51:00;2.90;61.20
13093;DHT22;6612;49.568;11.000;2024-01-30T03:53:27;2.90;61.80
13093;DHT22;6612;49.568;11.000;2024-01-30T03:55:54;2.80;61.70
13093;DHT22;6612;49.568;11.000;2024-01-30T03:58:21;2.80;61.80
13093;DHT22;6612;49.568;11.000;2024-01-30T04:00:49;2.90;61.80
13093;DHT22;6612;49.568;11.000;2024-01-30T04:03:15;2.80;61.80
13093;DHT22;6612;49.568;11.000;2024-01-30T04:05:44;2.80;61.80
13093;DHT22;6612;49.568;11.000;2024-01-30T04:08:11;2.80;61.90
13093;DHT22;6612;49.568;11.000;2024-01-30T04:10:38;2.80;61.90
13093;DHT22;6612;49.568;11.000;2024-01-30T04:13:05;2.80;61.90
13093;DHT22;6612;49.568;11.000;2024-01-30T04:15:32;2.80;61.80
13093;DHT22;6612;49.568;11.000;2024-01-30T04:18:00;2.80;61.80
13093;DHT22;6612;49.568;11.000;2024-01-30T04:20:27;2.80;61.80
13093;DHT22;6612;49.568;11.000;2024-01-30T04:22:55;2.80;61.90
13093;DHT22;6612;49.568;11.000;2024-01-30T04:25:22;2.70;61.90
13093;DHT22;6612;49.568;11.000;2024-01-30T04:27:50;2.70;62.00
13093;DHT22;6612;49.568;11.000;2024-01-30T04:30:17;2.70;62.10
13093;DHT22;6612;49.568;11.000;2024-01-30T04:32:44;2.70;62.20
13093;DHT22;6612;49.568;11.000;2024-01-30T04:35:11;2.70;62.30
13093;DHT22;6612;49.568;11.000;2024-01-30T04:37:38;2.70;62.40
13093;DHT22;6612;49.568;11.000;2024-01-30T04:40:07;2.80;62.60
13093;DHT22;6612;49.568;11.000;2024-01-30T04:42:35;2.80;62.70
13093;DHT22;6612;49.568;11.000;2024-01-30T04:45:02;2.80;62.70
13093;DHT22;6612;49.568;11.000;2024-01-30T04:47:29;2.80;62.70
13093;DHT22;6612;49.568;11.000;2024-01-30T04:49:56;2.80;62.80
13093;DHT22;6612;49.568;11.000;2024-01-30T04:52:23;2.80;62.80
13093;DHT22;6612;49.568;11.000;2024-01-30T04:54:50;2.90;62.90
13093;DHT22;6612;49.568;11.000;2024-01-30T04:57:19;2.90;63.00
13093;DHT22;6612;49.568;11.000;2024-01-30T04:59:46;2.90;63.10
13093;DHT22;6612;49.568;11.000;2024-01-30T05:02:13;2.90;63.10
13093;DHT22;6612;49.568;11.000;2024-01-30T05:04:41;3.00;63.20
13093;DHT22;6612;49.568;11.000;2024-01-30T05:07:08;3.00;63.20
13093;DHT22;6612;49.568;11.000;2024-01-30T05:09:35;3.00;63.30
13093;DHT22;6612;49.568;11.000;2024-01-30T05:12:02;3.00;63.20
13093;DHT22;6612;49.568;11.000;2024-01-30T05:14:30;3.10;63.20
13093;DHT22;6612;49.568;11.000;2024-01-30T05:16:57;3.10;63.10
13093;DHT22;6612;49.568;11.000;2024-01-30T05:19:24;3.10;63.10
13093;DHT22;6612;49.568;11.000;2024-01-30T05:21:51;3.10;63.10
13093;DHT22;6612;49.568;11.000;2024-01-30T05:24:18;3.10;63.10
13093;DHT22;6612;49.568;11.000;2024-01-30T05:26:45;3.20;63.20
13093;DHT22;6612;49.568;11.000;2024-01-30T05:29:13;3.20;63.30
13093;DHT22;6612;49.568;11.000;2024-01-30T05:31:42;3.20;63.30
13093;DHT22;6612;49.568;11.000;2024-01-30T05:34:09;3.20;64.10
13093;DHT22;6612;49.568;11.000;2024-01-30T05:36:36;3.30;63.40
13093;DHT22;6612;49.568;11.000;2024-01-30T05:39:03;3.30;63.40
13093;DHT22;6612;49.568;11.000;2024-01-30T05:41:30;3.30;63.40
13093;DHT22;6612;49.568;11.000;2024-01-30T05:43:57;3.30;63.40
13093;DHT22;6612;49.568;11.000;2024-01-30T05:46:24;3.30;63.50
13093;DHT22;6612;49.568;11.000;2024-01-30T05:48:52;3.30;63.50
13093;DHT22;6612;49.568;11.000;2024-01-30T05:51:19;3.40;63.50
13093;DHT22;6612;49.568;11.000;2024-01-30T05:53:46;3.40;63.50
13093;DHT22;6612;49.568;11.000;2024-01-30T05:56:13;3.40;63.50
13093;DHT22;6612;49.568;11.000;2024-01-30T05:58:41;3.40;63.60
13093;DHT22;6612;49.568;11.000;2024-01-30T06:01:08;3.50;63.00
13093;DHT22;6612;49.568;11.000;2024-01-30T06:03:35;3.50;63.70
13093;DHT22;6612;49.568;11.000;2024-01-30T06:06:04;3.50;63.80
13093;DHT22;6612;49.568;11.000;2024-01-30T06:08:31;3.50;63.80
13093;DHT22;6612;49.568;11.000;2024-01-30T06:10:59;3.60;63.40
13093;DHT22;6612;49.568;11.000;2024-01-30T06:13:26;3.60;64.00
13093;DHT22;6612;49.568;11.000;2024-01-30T06:15:53;3.70;64.10
13093;DHT22;6612;49.568;11.000;2024-01-30T06:18:20;3.70;64.10
13093;DHT22;6612;49.568;11.000;2024-01-30T06:20:47;3.70;64.10
13093;DHT22;6612;49.568;11.000;2024-01-30T06:23:15;3.70;64.10
13093;DHT22;6612;49.568;11.000;2024-01-30T06:25:43;3.80;64.10
13093;DHT22;6612;49.568;11.000;2024-01-30T06:28:09;3.80;64.10
13093;DHT22;6612;49.568;11.000;2024-01-30T06:30:36;3.80;64.00
13093;DHT22;6612;49.568;11.000;2024-01-30T06:33:04;3.90;64.20
13093;DHT22;6612;49.568;11.000;2024-01-30T06:35:31;3.90;64.20
13093;DHT22;6612;49.568;11.000;2024-01-30T06:37:58;3.90;64.30
13093;DHT22;6612;49.568;11.000;2024-01-30T06:40:26;3.90;64.20
13093;DHT22;6612;49.568;11.000;2024-01-30T06:42:53;4.00;64.20
13093;DHT22;6612;49.568;11.000;2024-01-30T06:45:21;4.00;64.20
13093;DHT22;6612;49.568;11.000;2024-01-30T06:47:48;4.10;64.30
13093;DHT22;6612;49.568;11.000;2024-01-30T06:50:15;4.10;64.30
13093;DHT22;6612;49.568;11.000;2024-01-30T06:52:42;4.10;64.30
13093;DHT22;6612;49.568;11.000;2024-01-30T06:55:09;4.20;64.30
13093;DHT22;6612;49.568;11.000;2024-01-30T06:57:38;4.20;64.20
13093;DHT22;6612;49.568;11.000;2024-01-30T07:00:06;4.20;64.10
13093;DHT22;6612;49.568;11.000;2024-01-30T07:02:33;4.30;64.20
13093;DHT22;6612;49.568;11.000;2024-01-30T07:05:00;4.30;64.10
13093;DHT22;6612;49.568;11.000;2024-01-30T07:07:27;4.30;64.10
13093;DHT22;6612;49.568;11.000;2024-01-30T07:09:55;4.30;64.10
13093;DHT22;6612;49.568;11.000;2024-01-30T07:12:22;4.30;64.00
13093;DHT22;6612;49.568;11.000;2024-01-30T07:14:51;4.40;64.10
13093;DHT22;6612;49.568;11.000;2024-01-30T07:17:19;4.40;64.00
13093;DHT22;6612;49.568;11.000;2024-01-30T07:19:46;4.40;64.00
13093;DHT22;6612;49.568;11.000;2024-01-30T07:22:13;4.40;64.00
13093;DHT22;6612;49.568;11.000;2024-01-30T07:24:42;4.50;64.10
13093;DHT22;6612;49.568;11.000;2024-01-30T07:27:12;4.50;64.20
13093;DHT22;6612;49.568;11.000;2024-01-30T07:29:40;4.50;64.30
13093;DHT22;6612;49.568;11.000;2024-01-30T07:32:08;4.60;64.40
13093;DHT22;6612;49.568;11.000;2024-01-30T07:34:35;4.60;64.40
13093;DHT22;6612;49.568;11.000;2024-01-30T07:37:03;4.70;64.60
13093;DHT22;6612;49.568;11.000;2024-01-30T07:39:30;4.70;64.60
13093;DHT22;6612;49.568;11.000;2024-01-30T07:41:57;4.80;64.80
13093;DHT22;6612;49.568;11.000;2024-01-30T07:44:24;4.80;64.80
13093;DHT22;6612;49.568;11.000;2024-01-30T07:46:51;4.90;64.80
13093;DHT22;6612;49.568;11.000;2024-01-30T07:49:19;5.00;65.00
13093;DHT22;6612;49.568;11.000;2024-01-30T07:51:46;5.00;65.00
13093;DHT22;6612;49.568;11.000;2024-01-30T07:54:13;5.10;65.10
13093;DHT22;6612;49.568;11.000;2024-01-30T07:56:40;5.10;65.10
13093;DHT22;6612;49.568;11.000;2024-01-30T07:59:09;5.20;65.20
13093;DHT22;6612;49.568;11.000;2024-01-30T08:01:37;5.30;65.20
13093;DHT22;6612;49.568;11.000;2024-01-30T08:04:04;5.40;65.40
13093;DHT22;6612;49.568;11.000;2024-01-30T08:06:32;5.50;65.50
13093;DHT22;6612;49.568;11.000;2024-01-30T08:08:59;5.60;65.60
13093;DHT22;6612;49.568;11.000;2024-01-30T08:11:26;5.70;66.10
13093;DHT22;6612;49.568;11.000;2024-01-30T08:13:55;5.80;66.50
13093;DHT22;6612;49.568;11.000;2024-01-30T08:16:22;5.90;67.00
13093;DHT22;6612;49.568;11.000;2024-01-30T08:18:49;6.10;67.50
13093;DHT22;6612;49.568;11.000;2024-01-30T08:21:16;6.30;67.80
13093;DHT22;6612;49.568;11.000;2024-01-30T08:23:44;6.50;67.60
13093;DHT22;6612;49.568;11.000;2024-01-30T08:26:11;6.70;67.30
13093;DHT22;6612;49.568;11.000;2024-01-30T08:28:38;6.80;67.00
13093;DHT22;6612;49.568;11.000;2024-01-30T08:31:05;7.10;65.20
13093;DHT22;6612;49.568;11.000;2024-01-30T08:33:32;7.20;66.00
13093;DHT22;6612;49.568;11.000;2024-01-30T08:35:59;7.30;65.40
13093;DHT22;6612;49.568;11.000;2024-01-30T08:38:26;7.40;64.80
13093;DHT22;6612;49.568;11.000;2024-01-30T08:40:55;7.50;63.70
13093;DHT22;6612;49.568;11.000;2024-01-30T08:43:22;7.50;64.10
13093;DHT22;6612;49.568;11.000;2024-01-30T08:45:49;7.50;63.90
13093;DHT22;6612;49.568;11.000;2024-01-30T08:48:16;7.60;63.90
13093;DHT22;6612;49.568;11.000;2024-01-30T08:50:44;7.60;63.80
13093;DHT22;6612;49.568;11.000;2024-01-30T08:53:11;7.70;63.60
13093;DHT22;6612;49.568;11.000;2024-01-30T08:55:38;7.70;63.30
13093;DHT22;6612;49.568;11.000;2024-01-30T08:58:07;7.70;62.90
13093;DHT22;6612;49.568;11.000;2024-01-30T09:00:34;7.80;62.30
13093;DHT22;6612;49.568;11.000;2024-01-30T09:03:01;7.80;62.50
13093;DHT22;6612;49.568;11.000;2024-01-30T09:05:28;7.80;62.70
13093;DHT22;6612;49.568;11.000;2024-01-30T09:07:55;7.80;62.40
13093;DHT22;6612;49.568;11.000;2024-01-30T09:10:22;7.80;62.60
13093;DHT22;6612;49.568;11.000;2024-01-30T09:12:49;7.90;63.40
13093;DHT22;6612;49.568;11.000;2024-01-30T09:15:18;8.00;63.60
13093;DHT22;6612;49.568;11.000;2024-01-30T09:17:45;8.00;63.20
13093;DHT22;6612;49.568;11.000;2024-01-30T09:20:12;8.10;63.10
13093;DHT22;6612;49.568;11.000;2024-01-30T09:22:39;8.20;62.90
13093;DHT22;6612;49.568;11.000;2024-01-30T09:25:07;8.30;62.50
13093;DHT22;6612;49.568;11.000;2024-01-30T09:27:34;8.30;62.20
13093;DHT22;6612;49.568;11.000;2024-01-30T09:30:01;8.30;61.80
13093;DHT22;6612;49.568;11.000;2024-01-30T09:32:30;8.40;62.10
13093;DHT22;6612;49.568;11.000;2024-01-30T09:34:57;8.40;62.00
13093;DHT22;6612;49.568;11.000;2024-01-30T09:37:24;8.50;62.00
13093;DHT22;6612;49.568;11.000;2024-01-30T09:39:51;8.50;61.90
13093;DHT22;6612;49.568;11.000;2024-01-30T09:42:24;8.60;61.90
13093;DHT22;6612;49.568;11.000;2024-01-30T09:44:53;8.60;61.10
13093;DHT22;6612;49.568;11.000;2024-01-30T09:47:21;8.70;61.10
13093;DHT22;6612;49.568;11.000;2024-01-30T09:49:49;8.80;61.50
13093;DHT22;6612;49.568;11.000;2024-01-30T09:52:17;8.80;61.20
13093;DHT22;6612;49.568;11.000;2024-01-30T09:54:45;8.90;61.40
13093;DHT22;6612;49.568;11.000;2024-01-30T09:57:12;8.90;61.50
13093;DHT22;6612;49.568;11.000;2024-01-30T09:59:41;9.00;61.90
13093;DHT22;6612;49.568;11.000;2024-01-30T10:02:08;9.00;61.90
13093;DHT22;6612;49.568;11.000;2024-01-30T10:04:36;9.10;61.70
13093;DHT22;6612;49.568;11.000;2024-01-30T10:07:04;9.20;61.80
13093;DHT22;6612;49.568;11.000;2024-01-30T10:09:33;9.30;62.00
13093;DHT22;6612;49.568;11.000;2024-01-30T10:12:02;9.30;62.20
13093;DHT22;6612;49.568;11.000;2024-01-30T10:14:30;9.40;61.30
13093;DHT22;6612;49.568;11.000;2024-01-30T10:16:57;9.50;61.10
13093;DHT22;6612;49.568;11.000;2024-01-30T10:19:25;9.50;60.00
13093;DHT22;6612;49.568;11.000;2024-01-30T10:21:52;9.50;60.50
13093;DHT22;6612;49.568;11.000;2024-01-30T10:24:25;9.60;61.10
13093;DHT22;6612;49.568;11.000;2024-01-30T10:26:53;9.60;60.90
13093;DHT22;6612;49.568;11.000;2024-01-30T10:29:21;9.70;61.40
13093;DHT22;6612;49.568;11.000;2024-01-30T10:31:58;9.80;61.50
13093;DHT22;6612;49.568;11.000;2024-01-30T10:34:25;9.90;60.40
13093;DHT22;6612;49.568;11.000;2024-01-30T10:36:59;9.90;61.20
13093;DHT22;6612;49.568;11.000;2024-01-30T10:39:29;10.00;59.40
13093;DHT22;6612;49.568;11.000;2024-01-30T10:42:03;10.00;59.60
13093;DHT22;6612;49.568;11.000;2024-01-30T10:44:36;10.10;59.20
13093;DHT22;6612;49.568;11.000;2024-01-30T10:47:08;10.20;59.30
13093;DHT22;6612;49.568;11.000;2024-01-30T10:49:39;10.20;59.20
13093;DHT22;6612;49.568;11.000;2024-01-30T10:52:08;10.20;59.30
13093;DHT22;6612;49.568;11.000;2024-01-30T10:54:37;10.40;59.50
13093;DHT22;6612;49.568;11.000;2024-01-30T10:57:06;10.30;59.50
13093;DHT22;6612;49.568;11.000;2024-01-30T10:59:33;10.40;59.60
13093;DHT22;6612;49.568;11.000;2024-01-30T11:02:01;10.40;59.60
13093;DHT22;6612;49.568;11.000;2024-01-30T11:04:36;10.50;59.10
13093;DHT22;6612;49.568;11.000;2024-01-30T11:07:03;10.50;58.40
13093;DHT22;6612;49.568;11.000;2024-01-30T11:09:48;10.60;59.40
13093;DHT22;6612;49.568;11.000;2024-01-30T11:12:15;10.70;58.70
13093;DHT22;6612;49.568;11.000;2024-01-30T11:14:43;10.70;59.50
13093;DHT22;6612;49.568;11.000;2024-01-30T11:17:10;10.80;59.60
13093;DHT22;6612;49.568;11.000;2024-01-30T11:19:38;10.80;59.60
13093;DHT22;6612;49.568;11.000;2024-01-30T11:22:08;10.90;59.60
13093;DHT22;6612;49.568;11.000;2024-01-30T11:24:40;11.00;59.40
13093;DHT22;6612;49.568;11.000;2024-01-30T11:27:09;11.00;58.00
13093;DHT22;6612;49.568;11.000;2024-01-30T11:29:36;11.10;58.60
13093;DHT22;6612;49.568;11.000;2024-01-30T11:32:04;11.10;58.70
13093;DHT22;6612;49.568;11.000;2024-01-30T11:34:32;11.20;59.10
13093;DHT22;6612;49.568;11.000;2024-01-30T11:37:03;11.30;59.10
13093;DHT22;6612;49.568;11.000;2024-01-30T11:39:32;11.30;58.50
13093;DHT22;6612;49.568;11.000;2024-01-30T11:42:01;11.40;59.20
13093;DHT22;6612;49.568;11.000;2024-01-30T11:44:30;11.40;59.00
13093;DHT22;6612;49.568;11.000;2024-01-30T11:46:57;11.50;59.00
13093;DHT22;6612;49.568;11.000;2024-01-30T11:49:24;11.60;59.10
13093;DHT22;6612;49.568;11.000;2024-01-30T11:51:52;11.60;58.80
13093;DHT22;6612;49.568;11.000;2024-01-30T11:54:19;11.70;58.50
13093;DHT22;6612;49.568;11.000;2024-01-30T11:56:47;11.70;58.30
13093;DHT22;6612;49.568;11.000;2024-01-30T11:59:15;11.80;58.10
13093;DHT22;6612;49.568;11.000;2024-01-30T12:01:42;11.80;57.80
13093;DHT22;6612;49.568;11.000;2024-01-30T12:04:09;11.80;57.70
13093;DHT22;6612;49.568;11.000;2024-01-30T12:06:36;11.90;57.80
13093;DHT22;6612;49.568;11.000;2024-01-30T12:09:04;11.90;57.90
13093;DHT22;6612;49.568;11.000;2024-01-30T12:11:32;11.90;57.90
13093;DHT22;6612;49.568;11.000;2024-01-30T12:13:59;11.90;57.70
13093;DHT22;6612;49.568;11.000;2024-01-30T12:16:27;12.00;57.50
13093;DHT22;6612;49.568;11.000;2024-01-30T12:19:01;12.00;57.40
13093;DHT22;6612;49.568;11.000;2024-01-30T12:21:29;12.00;56.60
13093;DHT22;6612;49.568;11.000;2024-01-30T12:23:56;12.10;57.40
13093;DHT22;6612;49.568;11.000;2024-01-30T12:26:24;12.10;57.20
13093;DHT22;6612;49.568;11.000;2024-01-30T12:28:55;12.10;57.30
13093;DHT22;6612;49.568;11.000;2024-01-30T12:31:28;12.20;57.10
13093;DHT22;6612;49.568;11.000;2024-01-30T12:33:55;12.20;56.80
13093;DHT22;6612;49.568;11.000;2024-01-30T12:36:22;12.20;56.10
13093;DHT22;6612;49.568;11.000;2024-01-30T12:38:50;12.20;56.40
13093;DHT22;6612;49.568;11.000;2024-01-30T12:41:17;12.20;56.80
13093;DHT22;6612;49.568;11.000;2024-01-30T12:43:44;12.30;56.90
13093;DHT22;6612;49.568;11.000;2024-01-30T12:46:11;12.30;57.10
13093;DHT22;6612;49.568;11.000;2024-01-30T12:48:39;12.40;57.30
13093;DHT22;6612;49.568;11.000;2024-01-30T12:51:06;12.40;57.10
13093;DHT22;6612;49.568;11.000;2024-01-30T12:53:33;12.50;57.40
13093;DHT22;6612;49.568;11.000;2024-01-30T12:56:00;12.50;57.30
13093;DHT22;6612;49.568;11.000;2024-01-30T12:58:27;12.60;57.30
13093;DHT22;6612;49.568;11.000;2024-01-30T13:00:55;12.60;57.30
13093;DHT22;6612;49.568;11.000;2024-01-30T13:03:22;12.70;57.40
13093;DHT22;6612;49.568;11.000;2024-01-30T13:05:51;12.70;57.10
13093;DHT22;6612;49.568;11.000;2024-01-30T13:08:18;12.80;56.80
13093;DHT22;6612;49.568;11.000;2024-01-30T13:10:45;12.80;56.90
13093;DHT22;6612;49.568;11.000;2024-01-30T13:13:13;12.80;56.40
13093;DHT22;6612;49.568;11.000;2024-01-30T13:15:40;12.90;56.50
13093;DHT22;6612;49.568;11.000;2024-01-30T13:18:07;12.90;56.50
13093;DHT22;6612;49.568;11.000;2024-01-30T13:20:35;12.90;56.40
13093;DHT22;6612;49.568;11.000;2024-01-30T13:23:04;12.90;55.90
13093;DHT22;6612;49.568;11.000;2024-01-30T13:25:31;12.90;55.80
13093;DHT22;6612;49.568;11.000;2024-01-30T13:27:58;12.90;56.00
13093;DHT22;6612;49.568;11.000;2024-01-30T13:30:25;13.00;56.00
13093;DHT22;6612;49.568;11.000;2024-01-30T13:32:52;13.00;56.10
13093;DHT22;6612;49.568;11.000;2024-01-30T13:35:19;13.00;56.00
13093;DHT22;6612;49.568;11.000;2024-01-30T13:37:46;13.00;56.10
13093;DHT22;6612;49.568;11.000;2024-01-30T13:40:16;13.00;56.80
13093;DHT22;6612;49.568;11.000;2024-01-30T13:42:43;13.00;55.90
13093;DHT22;6612;49.568;11.000;2024-01-30T13:45:10;13.00;56.20
13093;DHT22;6612;49.568;11.000;2024-01-30T13:47:37;13.00;56.30
13093;DHT22;6612;49.568;11.000;2024-01-30T13:50:05;13.10;56.30
13093;DHT22;6612;49.568;11.000;2024-01-30T13:52:32;13.10;56.40
13093;DHT22;6612;49.568;11.000;2024-01-30T13:54:59;13.10;56.50
13093;DHT22;6612;49.568;11.000;2024-01-30T13:57:27;13.20;56.40
13093;DHT22;6612;49.568;11.000;2024-01-30T13:59:54;13.10;56.00
13093;DHT22;6612;49.568;11.000;2024-01-30T14:02:21;13.20;56.20
13093;DHT22;6612;49.568;11.000;2024-01-30T14:04:48;13.20;56.20
13093;DHT22;6612;49.568;11.000;2024-01-30T14:07:15;13.20;56.20
13093;DHT22;6612;49.568;11.000;2024-01-30T14:09:44;13.20;56.20
13093;DHT22;6612;49.568;11.000;2024-01-30T14:12:11;13.20;56.10
13093;DHT22;6612;49.568;11.000;2024-01-30T14:14:40;13.20;56.10
13093;DHT22;6612;49.568;11.000;2024-01-30T14:17:07;13.20;55.70
13093;DHT22;6612;49.568;11.000;2024-01-30T14:19:35;13.20;56.00
13093;DHT22;6612;49.568;11.000;2024-01-30T14:22:02;13.20;55.90
13093;DHT22;6612;49.568;11.000;2024-01-30T14:24:29;13.20;55.90
13093;DHT22;6612;49.568;11.000;2024-01-30T14:26:56;13.20;55.90
13093;DHT22;6612;49.568;11.000;2024-01-30T14:29:23;13.20;55.90
13093;DHT22;6612;49.568;11.000;2024-01-30T14:31:51;13.20;56.00
13093;DHT22;6612;49.568;11.000;2024-01-30T14:34:20;13.20;55.90
13093;DHT22;6612;49.568;11.000;2024-01-30T14:36:47;13.30;55.90
13093;DHT22;6612;49.568;11.000;2024-01-30T14:39:14;13.20;55.80
13093;DHT22;6612;49.568;11.000;2024-01-30T14:41:41;13.20;55.80
13093;DHT22;6612;49.568;11.000;2024-01-30T14:44:08;13.20;55.90
13093;DHT22;6612;49.568;11.000;2024-01-30T14:46:35;13.20;55.90
13093;DHT22;6612;49.568;11.000;2024-01-30T14:49:04;13.10;55.80
13093;DHT22;6612;49.568;11.000;2024-01-30T14:51:32;13.10;55.60
13093;DHT22;6612;49.568;11.000;2024-01-30T14:53:59;13.10;55.80
13093;DHT22;6612;49.568;11.000;2024-01-30T14:56:26;13.10;55.80
13093;DHT22;6612;49.568;11.000;2024-01-30T14:58:53;13.10;55.80
13093;DHT22;6612;49.568;11.000;2024-01-30T15:01:21;13.10;55.80
13093;DHT22;6612;49.568;11.000;2024-01-30T15:03:48;13.00;55.80
13093;DHT22;6612;49.568;11.000;2024-01-30T15:06:18;13.00;55.90
13093;DHT22;6612;49.568;11.000;2024-01-30T15:08:48;13.00;55.70
13093;DHT22;6612;49.568;11.000;2024-01-30T15:11:15;13.00;55.90
13093;DHT22;6612;49.568;11.000;2024-01-30T15:13:42;13.00;55.90
13093;DHT22;6612;49.568;11.000;2024-01-30T15:16:09;12.90;55.90
13093;DHT22;6612;49.568;11.000;2024-01-30T15:18:36;12.90;55.80
13093;DHT22;6612;49.568;11.000;2024-01-30T15:21:03;12.90;55.90
13093;DHT22;6612;49.568;11.000;2024-01-30T15:23:32;12.90;55.90
13093;DHT22;6612;49.568;11.000;2024-01-30T15:25:59;12.80;55.80
13093;DHT22;6612;49.568;11.000;2024-01-30T15:28:35;12.80;55.90
13093;DHT22;6612;49.568;11.000;2024-01-30T15:31:03;12.70;55.30
13093;DHT22;6612;49.568;11.000;2024-01-30T15:33:31;12.70;55.90
13093;DHT22;6612;49.568;11.000;2024-01-30T15:35:58;12.70;56.00
13093;DHT22;6612;49.568;11.000;2024-01-30T15:38:25;12.60;55.90
13093;DHT22;6612;49.568;11.000;2024-01-30T15:40:54;12.60;56.00
13093;DHT22;6612;49.568;11.000;2024-01-30T15:43:21;12.50;55.90